| time (UTC) | temp F | wind direction | speed MPH | gust MPH | rain 1hr in | rain 24hr in | rain mn in | humidity % | barometer mb |
| 20260507193031 | 68 | 295 | 7.0 | 17.0 | 0.00 | 0.00 | 0.00 | 43 | 1018.8 |
| 20260507190033 | 67 | 302 | 9.0 | 24.0 | 0.00 | 0.00 | 0.00 | 47 | 1019.0 |
| 20260507183034 | 67 | 306 | 8.0 | 22.0 | 0.00 | 0.00 | 0.00 | 50 | 1019.6 |
| 20260507181532 | 66 | 294 | 7.0 | 16.0 | 0.00 | 0.00 | 0.00 | 50 | 1019.7 |
| 20260507180030 | 65 | 299 | 6.0 | 15.0 | 0.00 | 0.00 | 0.00 | 52 | 1019.9 |
| 20260507174536 | 65 | 294 | 6.0 | 15.0 | 0.00 | 0.00 | 0.00 | 53 | 1020.1 |
| 20260507173129 | 64 | 290 | 6.0 | 16.0 | 0.00 | 0.00 | 0.00 | 54 | 1020.3 |
| 20260507171534 | 65 | 306 | 7.0 | 14.0 | 0.00 | 0.00 | 0.00 | 57 | 1020.5 |
| 20260507170109 | 64 | 306 | 5.0 | 12.0 | 0.00 | 0.00 | 0.00 | 58 | 1020.6 |
| 20260507164537 | 64 | 322 | 6.0 | 15.0 | 0.00 | 0.00 | 0.00 | 59 | 1020.6 |
| 20260507163037 | 64 | 302 | 5.0 | 12.0 | 0.00 | 0.00 | 0.00 | 60 | 1020.6 |
| 20260507161533 | 62 | 275 | 4.0 | 11.0 | 0.00 | 0.00 | 0.00 | 60 | 1020.7 |
| 20260507160032 | 61 | 278 | 5.0 | 13.0 | 0.00 | 0.00 | 0.00 | 62 | 1020.9 |
| 20260507154530 | 61 | 268 | 6.0 | 12.0 | 0.00 | 0.00 | 0.00 | 63 | 1020.9 |
| 20260507153033 | 61 | 237 | 4.0 | 10.0 | 0.00 | 0.00 | 0.00 | 65 | 1021.1 |
| 20260507151531 | 60 | 278 | 2.0 | 7.0 | 0.00 | 0.00 | 0.00 | 67 | 1021.1 |
| 20260507150106 | 58 | 253 | 3.0 | 9.0 | 0.00 | 0.00 | 0.00 | 69 | 1021.1 |
| 20260507144535 | 57 | 261 | 4.0 | 9.0 | 0.00 | 0.00 | 0.00 | 72 | 1021.0 |
| 20260507143151 | 56 | 277 | 5.0 | 12.0 | 0.00 | 0.00 | 0.00 | 73 | 1021.0 |
| 20260507141530 | 56 | 268 | 3.0 | 11.0 | 0.00 | 0.00 | 0.00 | 76 | 1020.9 |
| 20260507134536 | 52 | 229 | 2.0 | 9.0 | 0.00 | 0.00 | 0.00 | 77 | 1020.6 |
| 20260507133029 | 53 | 297 | 3.0 | 12.0 | 0.00 | 0.00 | 0.00 | 76 | 1020.4 |
| 20260507131535 | 53 | 292 | 5.0 | 13.0 | 0.00 | 0.00 | 0.00 | 75 | 1020.2 |
| 20260507130035 | 54 | 284 | 6.0 | 16.0 | 0.00 | 0.00 | 0.00 | 75 | 1020.1 |
| 20260507124530 | 54 | 279 | 7.0 | 15.0 | 0.00 | 0.00 | 0.00 | 75 | 1020.1 |
| 20260507121530 | 54 | 282 | 7.0 | 16.0 | 0.00 | 0.00 | 0.00 | 75 | 1020.0 |
| 20260507120031 | 54 | 284 | 7.0 | 18.0 | 0.00 | 0.00 | 0.00 | 75 | 1019.9 |
| 20260507114536 | 54 | 284 | 7.0 | 15.0 | 0.00 | 0.00 | 0.00 | 76 | 1019.9 |
| 20260507113107 | 54 | 288 | 5.0 | 12.0 | 0.00 | 0.00 | 0.00 | 76 | 1019.8 |
| 20260507111530 | 54 | 294 | 6.0 | 13.0 | 0.00 | 0.00 | 0.00 | 76 | 1019.6 |
| 20260507110030 | 55 | 302 | 5.0 | 16.0 | 0.00 | 0.00 | 0.00 | 75 | 1019.5 |
| 20260507104607 | 55 | 293 | 5.0 | 13.0 | 0.00 | 0.00 | 0.00 | 75 | 1019.3 |
| 20260507103032 | 56 | 282 | 6.0 | 18.0 | 0.00 | 0.00 | 0.00 | 74 | 1019.3 |
| 20260507101642 | 56 | 277 | 6.0 | 19.0 | 0.00 | 0.00 | 0.00 | 73 | 1019.4 |
| 20260507094534 | 57 | 266 | 5.0 | 14.0 | 0.00 | 0.00 | 0.00 | 72 | 1019.5 |
| 20260507093031 | 57 | 267 | 5.0 | 15.0 | 0.00 | 0.00 | 0.00 | 72 | 1019.6 |
| 20260507091530 | 57 | 270 | 6.0 | 15.0 | 0.00 | 0.00 | 0.00 | 73 | 1019.7 |
| 20260507084535 | 57 | 318 | 5.0 | 13.0 | 0.00 | 0.00 | 0.00 | 74 | 1019.7 |
| 20260507083105 | 57 | 320 | 5.0 | 10.0 | 0.00 | 0.00 | 0.00 | 74 | 1019.7 |
| 20260507081537 | 58 | 324 | 4.0 | 12.0 | 0.00 | 0.00 | 0.00 | 73 | 1019.7 |
| 20260507074606 | 59 | 309 | 4.0 | 11.0 | 0.00 | 0.00 | 0.00 | 72 | 1019.8 |
| 20260507071532 | 59 | 276 | 6.0 | 14.0 | 0.00 | 0.00 | 0.00 | 72 | 1019.7 |
| 20260507070035 | 59 | 275 | 5.0 | 14.0 | 0.00 | 0.00 | 0.00 | 71 | 1019.7 |
| 20260507064531 | 60 | 283 | 4.0 | 13.0 | 0.00 | 0.00 | 0.00 | 71 | 1019.7 |
| 20260507061534 | 60 | 282 | 5.0 | 14.0 | 0.00 | 0.00 | 0.00 | 70 | 1019.9 |
| 20260507060035 | 61 | 276 | 5.0 | 15.0 | 0.00 | 0.00 | 0.00 | 70 | 1020.0 |
| 20260507054529 | 61 | 275 | 5.0 | 14.0 | 0.00 | 0.00 | 0.00 | 69 | 1020.0 |
| 20260507053030 | 61 | 271 | 6.0 | 15.0 | 0.00 | 0.00 | 0.00 | 68 | 1020.1 |
| 20260507051530 | 61 | 276 | 6.0 | 15.0 | 0.00 | 0.00 | 0.00 | 67 | 1020.0 |
| 20260507050045 | 61 | 268 | 5.0 | 15.0 | 0.00 | 0.00 | 0.00 | 66 | 1020.0 |
| 20260507044533 | 61 | 250 | 3.0 | 11.0 | 0.00 | 0.00 | 0.00 | 65 | 1020.0 |
| 20260507043035 | 61 | 277 | 3.0 | 9.0 | 0.00 | 0.00 | 0.00 | 63 | 1019.9 |
| 20260507041531 | 62 | 293 | 3.0 | 11.0 | 0.00 | 0.00 | 0.00 | 60 | 1019.8 |
| 20260507040043 | 64 | 291 | 1.0 | 4.0 | 0.00 | 0.00 | 0.00 | 56 | 1019.6 |
| 20260507034533 | 66 | 294 | 3.0 | 10.0 | 0.00 | 0.00 | 0.00 | 52 | 1019.5 |
| 20260507033035 | 67 | 259 | 3.0 | 12.0 | 0.00 | 0.00 | 0.00 | 51 | 1019.4 |
| 20260507031535 | 67 | 260 | 5.0 | 11.0 | 0.00 | 0.00 | 0.00 | 51 | 1019.2 |
| 20260507030030 | 66 | 267 | 4.0 | 12.0 | 0.00 | 0.00 | 0.00 | 52 | 1019.2 |
| 20260507024531 | 64 | 294 | 3.0 | 16.0 | 0.00 | 0.00 | 0.00 | 58 | 1019.3 |
| 20260507023040 | 64 | 348 | 2.0 | 6.0 | 0.00 | 0.00 | 0.00 | 58 | 1019.3 |
| 20260507021534 | 65 | 331 | 2.0 | 10.0 | 0.00 | 0.00 | 0.00 | 56 | 1019.3 |
| 20260507020030 | 66 | 325 | 4.0 | 10.0 | 0.00 | 0.00 | 0.00 | 55 | 1019.1 |
| 20260507014607 | 66 | 317 | 5.0 | 13.0 | 0.00 | 0.00 | 0.00 | 54 | 1019.0 |
| 20260507011529 | 68 | 306 | 5.0 | 14.0 | 0.00 | 0.00 | 0.00 | 50 | 1018.9 |
| 20260507010144 | 69 | 290 | 7.0 | 18.0 | 0.00 | 0.00 | 0.00 | 48 | 1018.8 |
| 20260507004535 | 70 | 278 | 7.0 | 17.0 | 0.00 | 0.00 | 0.00 | 46 | 1018.7 |
| 20260507003035 | 70 | 274 | 8.0 | 22.0 | 0.00 | 0.00 | 0.00 | 46 | 1018.6 |
| 20260507001531 | 70 | 271 | 8.0 | 21.0 | 0.00 | 0.00 | 0.00 | 45 | 1018.4 |
| 20260507000032 | 71 | 267 | 9.0 | 21.0 | 0.00 | 0.00 | 0.00 | 43 | 1018.3 |
| 20260506234532 | 72 | 264 | 9.0 | 21.0 | 0.00 | 0.00 | 0.00 | 41 | 1018.2 |
| 20260506231530 | 73 | 266 | 8.0 | 23.0 | 0.00 | 0.00 | 0.00 | 43 | 1017.9 |
| 20260506230034 | 73 | 274 | 7.0 | 19.0 | 0.00 | 0.00 | 0.00 | 44 | 1018.1 |
| 20260506223033 | 74 | 268 | 7.0 | 20.0 | 0.00 | 0.00 | 0.00 | 44 | 1018.6 |
| 20260506221530 | 73 | 266 | 8.0 | 20.0 | 0.00 | 0.00 | 0.00 | 44 | 1018.9 |
| 20260506220031 | 73 | 271 | 8.0 | 19.0 | 0.00 | 0.00 | 0.00 | 43 | 1018.8 |
| 20260506214531 | 75 | 269 | 10.0 | 23.0 | 0.00 | 0.00 | 0.00 | 43 | 1018.3 |
| 20260506213034 | 76 | 258 | 9.0 | 24.0 | 0.00 | 0.00 | 0.00 | 43 | 1017.8 |
| 20260506210106 | 75 | 259 | 8.0 | 21.0 | 0.00 | 0.00 | 0.00 | 45 | 1017.9 |
| 20260506204533 | 74 | 271 | 9.0 | 23.0 | 0.00 | 0.00 | 0.00 | 46 | 1018.2 |
| 20260506203031 | 75 | 268 | 9.0 | 21.0 | 0.00 | 0.00 | 0.00 | 46 | 1018.4 |
| 20260506201606 | 75 | 278 | 9.0 | 22.0 | 0.00 | 0.00 | 0.00 | 47 | 1018.3 |
| 20260506200030 | 75 | 273 | 7.0 | 20.0 | 0.00 | 0.00 | 0.00 | 47 | 1018.5 |